createdAt,value
2017-07-10T00:00:40.344Z,0
2017-07-10T00:01:20.848Z,0
2017-07-10T00:02:01.398Z,0
2017-07-10T00:02:41.854Z,0
2017-07-10T00:03:22.708Z,0
2017-07-10T00:04:02.905Z,0
2017-07-10T00:04:43.441Z,0
2017-07-10T00:05:23.984Z,0
2017-07-10T00:06:04.514Z,0
2017-07-10T00:06:45.084Z,0
2017-07-10T00:07:25.602Z,0
2017-07-10T00:08:06.018Z,0
2017-07-10T00:08:46.515Z,0
2017-07-10T00:09:27.076Z,0
2017-07-10T00:10:07.584Z,0
2017-07-10T00:10:48.067Z,0
2017-07-10T00:11:28.586Z,0
2017-07-10T00:12:09.066Z,0
2017-07-10T00:12:49.634Z,0
2017-07-10T00:13:30.115Z,0
2017-07-10T00:15:29.091Z,0
2017-07-10T00:16:09.604Z,0
2017-07-10T00:16:50.083Z,0
2017-07-10T00:18:49.333Z,0
2017-07-10T00:19:29.955Z,0
2017-07-10T00:20:10.951Z,0
2017-07-10T00:20:51.230Z,0
2017-07-10T00:21:31.691Z,0
2017-07-10T00:22:12.826Z,0
2017-07-10T00:22:52.747Z,0
2017-07-10T00:23:33.357Z,0
2017-07-10T00:24:13.764Z,0
2017-07-10T00:24:54.589Z,0
2017-07-10T00:25:34.895Z,0
2017-07-10T00:26:15.535Z,0
2017-07-10T00:26:56.037Z,0
2017-07-10T00:27:36.455Z,0
2017-07-10T00:28:16.979Z,0
2017-07-10T00:28:57.601Z,0
2017-07-10T00:29:38.315Z,0
2017-07-10T00:30:18.990Z,0
2017-07-10T00:30:59.467Z,0
2017-07-10T00:31:40.102Z,0
2017-07-10T00:32:20.620Z,0
2017-07-10T00:33:01.370Z,0
2017-07-10T00:33:42.333Z,0
2017-07-10T00:34:22.581Z,0
2017-07-10T00:35:02.968Z,0
2017-07-10T00:35:44.047Z,0
2017-07-10T00:36:24.690Z,0
2017-07-10T00:37:05.142Z,0
2017-07-10T00:37:45.736Z,0
2017-07-10T00:38:26.449Z,0
2017-07-10T00:39:07.060Z,0
2017-07-10T00:39:47.610Z,0
2017-07-10T00:40:27.961Z,0
2017-07-10T00:41:08.583Z,0
2017-07-10T00:41:48.932Z,0
2017-07-10T00:42:29.671Z,0
2017-07-10T00:43:10.062Z,0
2017-07-10T00:43:50.869Z,0
2017-07-10T00:44:31.698Z,0
2017-07-10T00:45:12.324Z,0
2017-07-10T00:45:53.102Z,0
2017-07-10T00:46:33.805Z,0
2017-07-10T00:47:14.345Z,0
2017-07-10T00:47:54.822Z,0
2017-07-10T00:48:35.392Z,0
2017-07-10T00:49:16.149Z,0
2017-07-10T00:49:56.626Z,0
2017-07-10T00:50:37.104Z,0
2017-07-10T00:51:17.621Z,0
2017-07-10T00:51:58.100Z,0
2017-07-10T00:52:38.609Z,0
2017-07-10T00:53:19.132Z,0
2017-07-10T00:53:59.651Z,0
2017-07-10T00:54:40.129Z,0
2017-07-10T00:55:20.992Z,0
2017-07-10T00:56:01.329Z,0
2017-07-10T00:56:41.863Z,0
2017-07-10T00:57:22.731Z,0
2017-07-10T00:58:03.241Z,0
2017-07-10T00:58:43.892Z,0
2017-07-10T00:59:24.757Z,0
2017-07-10T01:00:05.310Z,0
2017-07-10T01:00:46.709Z,0
2017-07-10T01:01:27.365Z,0
2017-07-10T01:02:07.701Z,0
2017-07-10T01:02:48.336Z,0
2017-07-10T01:03:29.015Z,0
2017-07-10T01:04:09.624Z,0
2017-07-10T01:04:50.269Z,0
2017-07-10T01:05:30.750Z,0
2017-07-10T01:06:11.481Z,0
2017-07-10T01:06:51.993Z,0
2017-07-10T01:07:32.593Z,0
2017-07-10T01:08:13.052Z,0
2017-07-10T01:08:53.605Z,0
2017-07-10T01:09:34.350Z,0
2017-07-10T01:10:14.658Z,0
2017-07-10T01:10:55.809Z,0
2017-07-10T01:11:36.450Z,0
2017-07-10T01:12:17.045Z,0
2017-07-10T01:12:57.410Z,0
2017-07-10T01:13:37.885Z,0
2017-07-10T01:14:18.373Z,0
2017-07-10T01:14:58.877Z,0
2017-07-10T01:15:39.397Z,0
2017-07-10T01:16:20.006Z,0
2017-07-10T01:17:00.410Z,0
2017-07-10T01:17:40.912Z,0
2017-07-10T01:18:21.416Z,0
2017-07-10T01:19:01.951Z,0
2017-07-10T01:19:42.423Z,0
2017-07-10T01:20:22.902Z,0
2017-07-10T01:21:03.462Z,0
2017-07-10T01:21:43.937Z,0
2017-07-10T01:22:24.432Z,0
2017-07-10T01:23:04.892Z,0
2017-07-10T01:23:45.449Z,0
2017-07-10T01:24:26.042Z,0
2017-07-10T01:25:06.524Z,0
2017-07-10T01:25:47.028Z,0
2017-07-10T01:26:27.615Z,0
2017-07-10T01:27:08.040Z,0
2017-07-10T01:27:48.606Z,0
2017-07-10T01:28:29.220Z,0
2017-07-10T01:29:09.560Z,0
2017-07-10T01:29:50.073Z,0
2017-07-10T01:30:30.527Z,0
2017-07-10T01:31:11.334Z,0
2017-07-10T01:31:51.774Z,0
2017-07-10T01:32:32.332Z,0
2017-07-10T01:33:12.841Z,0
2017-07-10T01:33:53.384Z,0
2017-07-10T01:34:34.012Z,0
2017-07-10T01:35:14.540Z,0
2017-07-10T01:35:55.104Z,0
2017-07-10T01:36:35.731Z,0
2017-07-10T01:37:16.148Z,0
2017-07-10T01:37:56.872Z,0
2017-07-10T01:38:37.722Z,0
2017-07-10T01:39:17.980Z,0
2017-07-10T01:39:58.694Z,0
2017-07-10T01:40:39.080Z,0
2017-07-10T01:41:19.650Z,0
2017-07-10T01:41:59.991Z,0
2017-07-10T01:42:40.527Z,0
2017-07-10T01:43:20.964Z,0
2017-07-10T01:44:01.544Z,0
2017-07-10T01:44:42.169Z,0
2017-07-10T01:45:22.695Z,0
2017-07-10T01:46:03.183Z,0
2017-07-10T01:46:44.005Z,0
2017-07-10T01:47:24.347Z,0
2017-07-10T01:48:05.118Z,0
2017-07-10T01:48:45.338Z,0
2017-07-10T01:49:25.840Z,0
2017-07-10T01:50:06.331Z,0
2017-07-10T01:50:46.842Z,0
2017-07-10T01:51:27.414Z,0
2017-07-10T01:52:07.839Z,0
2017-07-10T01:52:48.471Z,0
2017-07-10T01:53:28.949Z,0
2017-07-10T01:54:09.647Z,0
2017-07-10T01:54:50.175Z,0
2017-07-10T01:55:30.603Z,0
2017-07-10T01:56:10.993Z,0
2017-07-10T01:56:51.611Z,0
2017-07-10T01:57:32.172Z,0
2017-07-10T01:58:13.522Z,0
2017-07-10T01:58:54.269Z,0
2017-07-10T01:59:34.711Z,0
2017-07-10T02:00:15.107Z,0
2017-07-10T02:00:55.630Z,0
2017-07-10T02:01:36.568Z,0
2017-07-10T02:02:17.181Z,0
2017-07-10T02:02:57.661Z,0
2017-07-10T02:03:38.106Z,0
2017-07-10T02:04:18.731Z,0
2017-07-10T02:04:59.693Z,0
2017-07-10T02:05:39.849Z,0
2017-07-10T02:06:20.339Z,0
2017-07-10T02:07:00.846Z,0
2017-07-10T02:07:41.435Z,0
2017-07-10T02:08:21.978Z,0
2017-07-10T02:09:02.618Z,0
2017-07-10T02:09:43.061Z,0
2017-07-10T02:10:23.729Z,0
2017-07-10T02:11:05.289Z,0
2017-07-10T02:11:45.708Z,0
2017-07-10T02:12:26.230Z,0
2017-07-10T02:13:06.912Z,0
2017-07-10T02:13:47.486Z,0
2017-07-10T02:14:28.068Z,0
2017-07-10T02:15:09.231Z,0
2017-07-10T02:15:51.215Z,0
2017-07-10T02:16:30.731Z,0
2017-07-10T02:17:11.210Z,0
2017-07-10T02:17:51.912Z,0
2017-07-10T02:18:32.825Z,0
2017-07-10T02:19:13.168Z,0
2017-07-10T02:19:53.707Z,0
2017-07-10T02:20:34.287Z,0
2017-07-10T02:21:14.966Z,0
2017-07-10T02:21:55.622Z,0
2017-07-10T02:22:36.021Z,0
2017-07-10T02:23:16.642Z,0
2017-07-10T02:23:56.977Z,0
2017-07-10T02:24:37.467Z,0
2017-07-10T02:25:18.025Z,0
2017-07-10T02:25:58.589Z,0
2017-07-10T02:26:39.173Z,0
2017-07-10T02:27:19.692Z,0
2017-07-10T02:28:00.226Z,0
2017-07-10T02:28:40.915Z,0
2017-07-10T02:29:21.251Z,0
2017-07-10T02:30:02.762Z,0
2017-07-10T02:30:43.389Z,0
2017-07-10T02:31:23.893Z,0
2017-07-10T02:32:04.378Z,0
2017-07-10T02:32:44.903Z,0
2017-07-10T02:33:25.737Z,0
2017-07-10T02:34:06.193Z,0
2017-07-10T02:34:46.729Z,0
2017-07-10T02:35:27.196Z,0
2017-07-10T02:36:07.780Z,0
2017-07-10T02:36:48.237Z,0
2017-07-10T02:37:28.752Z,0
2017-07-10T02:38:09.480Z,0
2017-07-10T02:38:49.774Z,0
2017-07-10T02:39:30.388Z,0
2017-07-10T02:40:10.889Z,0
2017-07-10T02:40:51.415Z,0
2017-07-10T02:41:31.859Z,0
2017-07-10T02:42:12.898Z,0
2017-07-10T02:42:52.882Z,0
2017-07-10T02:43:33.491Z,0
2017-07-10T02:44:14.130Z,0
2017-07-10T02:44:54.650Z,0
2017-07-10T02:45:35.159Z,0
2017-07-10T02:46:16.251Z,0
2017-07-10T02:46:56.488Z,0
2017-07-10T02:47:37.010Z,0
2017-07-10T02:48:17.506Z,0
2017-07-10T02:48:57.952Z,0
2017-07-10T02:49:38.421Z,0
2017-07-10T02:50:18.935Z,0
2017-07-10T02:50:59.420Z,0
2017-07-10T02:51:40.337Z,0
2017-07-10T02:52:20.413Z,0
2017-07-10T02:53:01.010Z,0
2017-07-10T02:53:41.692Z,0
2017-07-10T02:54:22.151Z,0
2017-07-10T02:55:02.696Z,0
2017-07-10T02:55:43.355Z,0
2017-07-10T02:56:23.722Z,0
2017-07-10T02:57:04.239Z,0
2017-07-10T02:57:44.708Z,0
2017-07-10T02:58:25.278Z,0
2017-07-10T02:59:05.751Z,0
2017-07-10T02:59:46.338Z,0
2017-07-10T03:00:27.011Z,0
2017-07-10T03:01:07.578Z,0
2017-07-10T03:01:48.109Z,0
2017-07-10T03:02:28.630Z,0
2017-07-10T03:03:09.230Z,0
2017-07-10T03:03:49.877Z,0
2017-07-10T03:04:30.854Z,0
2017-07-10T03:05:11.430Z,0
2017-07-10T03:05:52.134Z,0
2017-07-10T03:06:32.783Z,0
2017-07-10T03:07:13.532Z,0
2017-07-10T03:07:54.527Z,0
2017-07-10T03:08:35.252Z,0
2017-07-10T03:09:15.617Z,0
2017-07-10T03:09:56.163Z,0
2017-07-10T03:10:37.020Z,0
2017-07-10T03:11:17.509Z,0
2017-07-10T03:11:58.420Z,0
2017-07-10T03:12:38.975Z,0
2017-07-10T03:13:19.550Z,0
2017-07-10T03:14:00.049Z,0
2017-07-10T03:14:40.522Z,0
2017-07-10T03:15:21.225Z,0
2017-07-10T03:16:01.966Z,0
2017-07-10T03:16:42.803Z,0
2017-07-10T03:17:23.295Z,0
2017-07-10T03:18:04.126Z,0
2017-07-10T03:18:44.732Z,0
2017-07-10T03:19:25.644Z,0
2017-07-10T03:20:06.148Z,0
2017-07-10T03:20:46.609Z,4
2017-07-10T03:21:27.086Z,4
2017-07-10T03:22:07.796Z,4
2017-07-10T03:22:49.012Z,4
2017-07-10T03:23:29.948Z,4
2017-07-10T03:24:10.557Z,4
2017-07-10T03:24:51.186Z,4
2017-07-10T03:25:31.990Z,0
2017-07-10T03:26:12.855Z,0
2017-07-10T03:26:53.600Z,0
2017-07-10T03:27:34.079Z,4
2017-07-10T03:28:14.535Z,4
2017-07-10T03:28:55.313Z,4
2017-07-10T03:29:36.322Z,8
2017-07-10T03:30:16.836Z,4
2017-07-10T03:30:57.398Z,4
2017-07-10T03:31:38.488Z,8
2017-07-10T03:32:19.084Z,8
2017-07-10T03:32:59.483Z,4
2017-07-10T03:33:40.027Z,8
2017-07-10T03:34:20.642Z,8
2017-07-10T03:35:01.107Z,8
2017-07-10T03:35:41.674Z,8
2017-07-10T03:36:22.091Z,8
2017-07-10T03:37:02.606Z,8
2017-07-10T03:37:43.197Z,12
2017-07-10T03:38:23.716Z,8
2017-07-10T03:39:04.152Z,8
2017-07-10T03:39:45.245Z,8
2017-07-10T03:40:25.418Z,12
2017-07-10T03:41:05.855Z,8
2017-07-10T03:41:46.480Z,8
2017-07-10T03:42:27.174Z,12
2017-07-10T03:43:07.703Z,16
2017-07-10T03:43:48.422Z,16
2017-07-10T03:44:29.144Z,16
2017-07-10T03:45:10.393Z,16
2017-07-10T03:45:50.557Z,16
2017-07-10T03:46:30.851Z,16
2017-07-10T03:47:11.631Z,16
2017-07-10T03:47:52.156Z,16
2017-07-10T03:48:32.935Z,20
2017-07-10T03:49:13.540Z,16
2017-07-10T03:49:54.119Z,16
2017-07-10T03:50:34.584Z,20
2017-07-10T03:51:15.181Z,20
2017-07-10T03:51:56.538Z,24
2017-07-10T03:52:37.056Z,28
2017-07-10T03:53:18.154Z,28
2017-07-10T03:53:58.394Z,32
2017-07-10T03:54:39.052Z,32
2017-07-10T03:55:19.386Z,28
2017-07-10T03:56:00.185Z,32
2017-07-10T03:56:40.712Z,28
2017-07-10T03:57:21.166Z,24
2017-07-10T03:58:01.657Z,28
2017-07-10T03:58:42.202Z,24
2017-07-10T03:59:22.920Z,24
2017-07-10T04:00:03.314Z,24
2017-07-10T04:00:44.145Z,28
2017-07-10T04:01:24.847Z,28
2017-07-10T04:02:05.538Z,32
2017-07-10T04:02:46.410Z,32
2017-07-10T04:03:27.206Z,36
2017-07-10T04:04:07.786Z,36
2017-07-10T04:04:48.453Z,44
2017-07-10T04:05:28.814Z,44
2017-07-10T04:06:09.990Z,44
2017-07-10T04:06:50.669Z,48
2017-07-10T04:07:31.157Z,44
2017-07-10T04:08:11.628Z,48
2017-07-10T04:08:52.189Z,52
2017-07-10T04:09:32.924Z,48
2017-07-10T04:10:13.513Z,52
2017-07-10T04:10:54.004Z,56
2017-07-10T04:11:34.543Z,56
2017-07-10T04:12:15.053Z,60
2017-07-10T04:12:55.852Z,64
2017-07-10T04:13:36.176Z,72
2017-07-10T04:14:16.713Z,76
2017-07-10T04:14:57.249Z,80
2017-07-10T04:15:37.706Z,80
2017-07-10T04:16:18.215Z,84
2017-07-10T04:16:59.321Z,88
2017-07-10T04:17:40.034Z,84
2017-07-10T04:18:20.596Z,84
2017-07-10T04:19:01.066Z,80
2017-07-10T04:19:41.609Z,72
2017-07-10T04:20:22.088Z,68
2017-07-10T04:21:02.567Z,72
2017-07-10T04:21:43.230Z,72
2017-07-10T04:22:23.681Z,68
2017-07-10T04:23:04.161Z,72
2017-07-10T04:23:44.685Z,68
2017-07-10T04:24:25.291Z,68
2017-07-10T04:25:05.752Z,68
2017-07-10T04:25:46.288Z,72
2017-07-10T04:26:27.300Z,72
2017-07-10T04:27:07.597Z,76
2017-07-10T04:27:48.149Z,80
2017-07-10T04:28:28.598Z,84
2017-07-10T04:29:09.164Z,84
2017-07-10T04:29:49.639Z,88
2017-07-10T04:30:30.171Z,92
2017-07-10T04:31:10.696Z,96
2017-07-10T04:31:51.233Z,100
2017-07-10T04:32:31.699Z,104
2017-07-10T04:33:12.161Z,108
2017-07-10T04:33:52.823Z,116
2017-07-10T04:34:33.222Z,124
2017-07-10T04:35:13.743Z,132
2017-07-10T04:35:54.200Z,136
2017-07-10T04:36:34.777Z,140
2017-07-10T04:37:15.375Z,152
2017-07-10T04:37:56.038Z,164
2017-07-10T04:38:36.542Z,180
2017-07-10T04:39:17.047Z,196
2017-07-10T04:39:57.509Z,216
2017-07-10T04:40:38.105Z,232
2017-07-10T04:41:18.577Z,248
2017-07-10T04:41:59.035Z,256
2017-07-10T04:42:39.570Z,260
2017-07-10T04:43:20.045Z,272
2017-07-10T04:44:00.518Z,272
2017-07-10T04:44:41.050Z,272
2017-07-10T04:45:21.635Z,260
2017-07-10T04:46:02.358Z,248
2017-07-10T04:46:42.909Z,232
2017-07-10T04:47:23.260Z,220
2017-07-10T04:48:03.755Z,208
2017-07-10T04:48:44.434Z,204
2017-07-10T04:49:25.140Z,200
2017-07-10T04:50:05.546Z,196
2017-07-10T04:50:46.110Z,196
2017-07-10T04:51:26.546Z,196
2017-07-10T04:52:07.136Z,196
2017-07-10T04:52:47.587Z,200
2017-07-10T04:53:28.127Z,196
2017-07-10T04:54:08.570Z,192
2017-07-10T04:54:49.186Z,180
2017-07-10T04:55:29.735Z,180
2017-07-10T04:56:10.196Z,180
2017-07-10T04:56:51.213Z,176
2017-07-10T04:57:31.257Z,184
2017-07-10T04:58:11.847Z,192
2017-07-10T04:58:52.358Z,204
2017-07-10T04:59:33.191Z,216
2017-07-10T05:00:13.523Z,236
2017-07-10T05:00:53.975Z,248
2017-07-10T05:01:34.484Z,256
2017-07-10T05:02:14.998Z,272
2017-07-10T05:02:55.524Z,276
2017-07-10T05:03:35.979Z,292
2017-07-10T05:04:18.279Z,304
2017-07-10T05:04:57.075Z,316
2017-07-10T05:05:37.812Z,332
2017-07-10T05:06:18.137Z,332
2017-07-10T05:06:58.598Z,328
2017-07-10T05:07:39.085Z,328
2017-07-10T05:08:19.904Z,336
2017-07-10T05:09:00.256Z,328
2017-07-10T05:09:40.817Z,324
2017-07-10T05:10:21.974Z,316
2017-07-10T05:11:02.730Z,320
2017-07-10T05:11:43.292Z,336
2017-07-10T05:12:23.897Z,364
2017-07-10T05:13:04.419Z,380
2017-07-10T05:13:47.319Z,392
2017-07-10T05:14:28.394Z,392
2017-07-10T05:15:10.064Z,392
2017-07-10T05:15:51.083Z,392
2017-07-10T05:16:34.385Z,396
2017-07-10T05:17:15.676Z,428
2017-07-10T05:17:56.225Z,416
2017-07-10T05:18:36.832Z,432
2017-07-10T05:19:17.488Z,432
2017-07-10T05:23:08.267Z,380
2017-07-10T05:23:49.885Z,380
2017-07-10T05:24:30.653Z,384
2017-07-10T05:25:12.007Z,404
2017-07-10T05:25:55.008Z,424
2017-07-10T05:26:35.630Z,452
2017-07-10T05:27:16.162Z,468
2017-07-10T05:27:56.701Z,496
2017-07-10T05:28:37.213Z,528
2017-07-10T05:29:17.728Z,532
2017-07-10T05:29:58.320Z,544
2017-07-10T05:30:38.874Z,568
2017-07-10T05:31:19.345Z,516
2017-07-10T05:31:59.892Z,504
2017-07-10T05:32:40.406Z,500
2017-07-10T05:33:21.139Z,508
2017-07-10T05:34:01.727Z,508
2017-07-10T05:34:43.744Z,496
2017-07-10T05:35:27.320Z,496
2017-07-10T05:36:10.607Z,480
2017-07-10T05:36:51.231Z,492
2017-07-10T05:37:31.785Z,492
2017-07-10T05:38:12.275Z,484
2017-07-10T05:38:52.806Z,476
2017-07-10T05:39:33.293Z,460
2017-07-10T05:40:13.837Z,440
2017-07-10T05:40:54.337Z,400
2017-07-10T05:41:34.924Z,384
2017-07-10T05:42:15.393Z,376
2017-07-10T05:42:55.939Z,360
2017-07-10T05:43:36.432Z,392
2017-07-10T05:44:16.995Z,380
2017-07-10T05:44:57.476Z,396
2017-07-10T05:45:39.709Z,388
2017-07-10T05:46:20.226Z,440
2017-07-10T05:47:00.737Z,428
2017-07-10T05:47:41.293Z,428
2017-07-10T05:48:21.758Z,440
2017-07-10T05:49:02.273Z,404
2017-07-10T05:49:42.830Z,404
2017-07-10T05:50:23.337Z,416
2017-07-10T05:51:03.879Z,416
2017-07-10T05:51:44.411Z,400
2017-07-10T05:52:25.010Z,400
2017-07-10T05:53:05.576Z,420
2017-07-10T05:53:46.117Z,420
2017-07-10T05:54:26.625Z,408
2017-07-10T05:55:07.195Z,412
2017-07-10T05:55:47.624Z,384
2017-07-10T05:56:28.154Z,380
2017-07-10T05:57:08.705Z,376
2017-07-10T05:57:49.258Z,356
2017-07-10T05:58:29.767Z,360
2017-07-10T05:59:10.251Z,360
2017-07-10T05:59:50.804Z,376
2017-07-10T06:00:31.352Z,392
2017-07-10T06:01:11.923Z,404
2017-07-10T06:01:52.402Z,412
2017-07-10T06:02:32.921Z,428
2017-07-10T06:03:13.458Z,452
2017-07-10T06:03:55.984Z,452
2017-07-10T06:04:36.646Z,460
2017-07-10T06:05:17.163Z,480
2017-07-10T06:05:57.724Z,492
2017-07-10T06:06:38.282Z,528
2017-07-10T06:07:18.830Z,568
2017-07-10T06:07:59.332Z,620
2017-07-10T06:08:39.894Z,724
2017-07-10T06:09:20.315Z,796
2017-07-10T06:10:00.837Z,840
2017-07-10T06:10:41.372Z,872
2017-07-10T06:11:21.907Z,924
2017-07-10T06:12:02.428Z,904
2017-07-10T06:12:42.979Z,920
2017-07-10T06:13:23.491Z,856
2017-07-10T06:14:04.012Z,888
2017-07-10T06:14:44.567Z,936
2017-07-10T06:15:25.086Z,900
2017-07-10T06:16:05.577Z,888
2017-07-10T06:16:46.106Z,852
2017-07-10T06:17:26.644Z,808
2017-07-10T06:18:07.197Z,736
2017-07-10T06:18:47.664Z,672
2017-07-10T06:19:28.248Z,612
2017-07-10T06:20:08.815Z,528
2017-07-10T06:20:49.351Z,500
2017-07-10T06:21:29.881Z,472
2017-07-10T06:22:10.439Z,412
2017-07-10T06:22:50.989Z,404
2017-07-10T06:23:31.502Z,400
2017-07-10T06:24:12.019Z,396
2017-07-10T06:24:52.552Z,388
2017-07-10T06:25:33.075Z,344
2017-07-10T06:26:13.554Z,328
2017-07-10T06:26:54.906Z,304
2017-07-10T06:27:35.427Z,280
2017-07-10T06:28:16.167Z,268
2017-07-10T06:28:56.499Z,256
2017-07-10T06:29:37.016Z,248
2017-07-10T06:30:17.553Z,252
2017-07-10T06:30:58.093Z,256
2017-07-10T06:31:38.554Z,252
2017-07-10T06:32:19.080Z,256
2017-07-10T06:32:59.574Z,264
2017-07-10T06:33:40.111Z,268
2017-07-10T06:34:20.647Z,240
2017-07-10T06:35:01.188Z,256
2017-07-10T06:35:41.676Z,252
2017-07-10T06:36:22.157Z,260
2017-07-10T06:37:02.675Z,264
2017-07-10T06:37:43.221Z,272
2017-07-10T06:38:23.762Z,268
2017-07-10T06:39:04.323Z,248
2017-07-10T06:39:44.835Z,224
2017-07-10T06:40:25.375Z,216
2017-07-10T06:41:05.904Z,208
2017-07-10T06:41:46.429Z,208
2017-07-10T06:42:27.081Z,212
2017-07-10T06:43:07.610Z,216
2017-07-10T06:43:48.214Z,240
2017-07-10T06:44:28.722Z,268
2017-07-10T06:45:09.212Z,292
2017-07-10T06:45:49.719Z,320
2017-07-10T06:46:30.243Z,364
2017-07-10T06:47:10.798Z,412
2017-07-10T06:47:51.467Z,416
2017-07-10T06:48:31.908Z,412
2017-07-10T06:49:12.474Z,428
2017-07-10T06:49:52.972Z,388
2017-07-10T06:50:33.620Z,380
2017-07-10T06:51:14.196Z,392
2017-07-10T06:51:54.751Z,368
2017-07-10T06:52:35.297Z,404
2017-07-10T06:53:15.765Z,456
2017-07-10T06:53:56.279Z,492
2017-07-10T06:54:36.816Z,512
2017-07-10T06:55:17.339Z,572
2017-07-10T06:55:57.899Z,568
2017-07-10T06:56:38.443Z,620
2017-07-10T06:57:18.994Z,648
2017-07-10T06:57:59.510Z,656
2017-07-10T06:58:39.965Z,644
2017-07-10T06:59:20.405Z,636
2017-07-10T07:00:00.957Z,576
2017-07-10T07:00:41.472Z,632
2017-07-10T07:01:22.064Z,668
2017-07-10T07:02:02.490Z,644
2017-07-10T07:02:43.065Z,584
2017-07-10T07:03:23.589Z,608
2017-07-10T07:04:04.094Z,604
2017-07-10T07:04:44.635Z,548
2017-07-10T07:06:42.838Z,488
2017-07-10T07:07:23.389Z,432
2017-07-10T07:08:03.888Z,400
2017-07-10T07:08:44.426Z,368
2017-07-10T07:09:24.980Z,380
2017-07-10T07:10:05.444Z,372
2017-07-10T07:10:45.949Z,348
2017-07-10T07:11:26.546Z,364
2017-07-10T07:12:06.948Z,364
2017-07-10T07:12:47.445Z,364
2017-07-10T07:13:27.910Z,352
2017-07-10T07:14:08.436Z,368
2017-07-10T07:14:48.909Z,464
2017-07-10T07:15:29.461Z,508
2017-07-10T07:16:09.911Z,464
2017-07-10T07:16:50.447Z,448
2017-07-10T07:17:30.908Z,484
2017-07-10T07:18:11.398Z,508
2017-07-10T07:18:51.947Z,544
2017-07-10T07:19:32.446Z,544
2017-07-10T07:20:12.968Z,520
2017-07-10T07:20:53.475Z,536
2017-07-10T07:21:34.013Z,536
2017-07-10T07:22:14.518Z,532
2017-07-10T07:22:55.070Z,536
2017-07-10T07:23:35.530Z,536
2017-07-10T07:24:16.003Z,556
2017-07-10T07:24:56.512Z,652
2017-07-10T07:25:37.007Z,744
2017-07-10T07:26:17.531Z,760
2017-07-10T07:26:58.007Z,732
2017-07-10T07:27:39.229Z,732
2017-07-10T07:28:19.778Z,836
2017-07-10T07:29:00.272Z,816
2017-07-10T07:29:40.885Z,812
2017-07-10T07:30:21.440Z,784
2017-07-10T07:31:01.959Z,884
2017-07-10T07:31:42.529Z,748
2017-07-10T07:32:23.010Z,676
2017-07-10T07:33:03.556Z,624
2017-07-10T07:33:44.099Z,540
2017-07-10T07:34:24.570Z,656
2017-07-10T07:35:05.076Z,784
2017-07-10T07:35:45.578Z,796
2017-07-10T07:36:26.032Z,776
2017-07-10T07:37:06.577Z,892
2017-07-10T07:37:47.024Z,944
2017-07-10T07:38:27.560Z,1040
2017-07-10T07:39:08.015Z,1132
2017-07-10T07:39:48.550Z,1160
2017-07-10T07:40:29.125Z,1144
2017-07-10T07:41:09.656Z,1204
2017-07-10T07:41:50.124Z,1248
2017-07-10T07:42:30.643Z,1356
2017-07-10T07:43:11.149Z,1404
2017-07-10T07:43:51.658Z,1488
2017-07-10T07:44:32.201Z,1536
2017-07-10T07:45:12.705Z,1656
2017-07-10T07:45:53.208Z,1812
2017-07-10T07:46:33.801Z,2072
2017-07-10T07:47:14.319Z,2068
2017-07-10T07:47:54.787Z,2028
2017-07-10T07:48:35.288Z,2096
2017-07-10T07:49:15.925Z,1896
2017-07-10T07:49:56.393Z,2208
2017-07-10T07:50:36.965Z,1764
2017-07-10T07:51:17.435Z,1640
2017-07-10T07:51:57.995Z,1560
2017-07-10T07:52:38.472Z,1584
2017-07-10T07:53:18.988Z,1420
2017-07-10T07:53:59.497Z,1612
2017-07-10T07:54:40.002Z,1600
2017-07-10T07:55:20.665Z,1576
2017-07-10T07:56:01.111Z,1512
2017-07-10T07:56:41.636Z,1380
2017-07-10T07:57:22.116Z,1244
2017-07-10T07:58:02.700Z,1020
2017-07-10T07:58:43.182Z,1072
2017-07-10T07:59:23.794Z,1108
2017-07-10T08:00:04.246Z,1020
2017-07-10T08:00:44.875Z,1016
2017-07-10T08:01:25.410Z,1004
2017-07-10T08:02:05.914Z,944
2017-07-10T08:02:46.409Z,936
2017-07-10T08:03:26.887Z,952
2017-07-10T08:04:07.397Z,1044
2017-07-10T08:04:47.913Z,984
2017-07-10T08:05:28.421Z,1064
2017-07-10T08:06:08.936Z,1012
2017-07-10T08:06:49.412Z,952
2017-07-10T08:07:29.952Z,1044
2017-07-10T08:08:10.558Z,948
2017-07-10T08:08:51.114Z,972
2017-07-10T08:09:31.544Z,1060
2017-07-10T08:10:12.146Z,1060
2017-07-10T08:10:52.607Z,1064
2017-07-10T08:11:33.136Z,1088
2017-07-10T08:12:13.609Z,1204
2017-07-10T08:12:54.145Z,1116
2017-07-10T08:13:34.659Z,1052
2017-07-10T08:14:15.269Z,980
2017-07-10T08:14:55.764Z,860
2017-07-10T08:15:36.221Z,768
2017-07-10T08:16:16.725Z,784
2017-07-10T08:16:57.248Z,756
2017-07-10T08:17:37.704Z,656
2017-07-10T08:18:18.271Z,604
2017-07-10T08:18:58.797Z,636
2017-07-10T08:19:39.336Z,684
2017-07-10T08:20:19.942Z,756
2017-07-10T08:21:00.457Z,784
2017-07-10T08:21:41.042Z,844
2017-07-10T08:22:21.610Z,872
2017-07-10T08:23:02.129Z,832
2017-07-10T08:23:42.612Z,736
2017-07-10T08:24:23.091Z,824
2017-07-10T08:25:03.589Z,720
2017-07-10T08:25:44.120Z,744
2017-07-10T08:26:24.585Z,828
2017-07-10T08:27:05.137Z,876
2017-07-10T08:27:45.677Z,852
2017-07-10T08:28:26.121Z,904
2017-07-10T08:29:06.707Z,944
2017-07-10T08:29:47.225Z,1044
2017-07-10T08:30:27.807Z,1116
2017-07-10T08:31:08.246Z,1164
2017-07-10T08:31:48.780Z,1160
2017-07-10T08:32:29.268Z,1292
2017-07-10T08:33:09.784Z,1232
2017-07-10T08:33:50.256Z,1264
2017-07-10T08:34:30.822Z,1312
2017-07-10T08:35:11.467Z,1360
2017-07-10T08:35:51.970Z,1408
2017-07-10T08:36:32.446Z,1496
2017-07-10T08:37:12.969Z,1548
2017-07-10T08:37:53.476Z,1660
2017-07-10T08:38:33.951Z,1712
2017-07-10T08:39:14.452Z,1720
2017-07-10T08:39:54.988Z,1832
2017-07-10T08:40:35.611Z,1804
2017-07-10T08:41:16.079Z,1836
2017-07-10T08:41:56.611Z,1904
2017-07-10T08:42:37.266Z,2060
2017-07-10T08:43:17.805Z,2104
2017-07-10T08:43:58.289Z,2348
2017-07-10T08:44:38.842Z,2464
2017-07-10T08:45:19.312Z,2424
2017-07-10T08:45:59.832Z,2640
2017-07-10T08:46:40.407Z,2536
2017-07-10T08:47:20.947Z,2700
2017-07-10T08:48:01.466Z,2632
2017-07-10T08:48:41.972Z,2508
2017-07-10T08:49:22.485Z,2632
2017-07-10T08:50:02.980Z,2344
2017-07-10T08:50:43.475Z,2352
2017-07-10T08:51:23.953Z,2248
2017-07-10T08:52:04.506Z,2080
2017-07-10T08:52:44.952Z,2068
2017-07-10T08:53:25.478Z,1772
2017-07-10T08:54:06.215Z,1568
2017-07-10T08:54:46.736Z,1576
2017-07-10T08:55:27.228Z,1756
2017-07-10T08:56:07.779Z,1884
2017-07-10T08:56:48.287Z,2092
2017-07-10T08:57:28.832Z,2028
2017-07-10T08:58:09.355Z,2004
2017-07-10T08:58:49.808Z,1788
2017-07-10T08:59:30.327Z,1916
2017-07-10T09:00:10.871Z,2148
2017-07-10T09:00:51.311Z,2364
2017-07-10T09:01:31.789Z,2632
2017-07-10T09:02:12.315Z,2792
2017-07-10T09:02:52.856Z,2772
2017-07-10T09:03:33.363Z,2780
2017-07-10T09:04:13.852Z,2928
2017-07-10T09:04:54.394Z,3024
2017-07-10T09:05:34.889Z,3064
2017-07-10T09:06:15.405Z,2884
2017-07-10T09:06:55.951Z,2448
2017-07-10T09:07:36.470Z,2392
2017-07-10T09:08:16.963Z,2224
2017-07-10T09:08:57.509Z,2108
2017-07-10T09:09:37.982Z,2036
2017-07-10T09:10:18.505Z,2000
2017-07-10T09:10:59.013Z,2032
2017-07-10T09:11:39.562Z,1992
2017-07-10T09:12:20.103Z,2100
2017-07-10T09:13:00.624Z,2092
2017-07-10T09:13:41.127Z,2068
2017-07-10T09:14:21.664Z,2124
2017-07-10T09:15:02.176Z,2188
2017-07-10T09:15:42.710Z,2192
2017-07-10T09:16:23.296Z,2296
2017-07-10T09:17:03.819Z,2308
2017-07-10T09:17:44.363Z,2408
2017-07-10T09:18:24.860Z,2332
2017-07-10T09:19:05.399Z,2268
2017-07-10T09:19:46.122Z,2116
2017-07-10T09:20:26.385Z,2128
2017-07-10T09:21:06.886Z,2152
2017-07-10T09:21:47.398Z,2284
2017-07-10T09:22:27.921Z,2164
2017-07-10T09:23:08.411Z,2024
2017-07-10T09:23:48.923Z,2004
2017-07-10T09:24:29.378Z,2336
2017-07-10T09:25:09.901Z,2704
2017-07-10T09:25:50.430Z,2668
2017-07-10T09:26:30.924Z,2628
2017-07-10T09:27:11.454Z,2320
2017-07-10T09:27:51.938Z,1868
2017-07-10T09:28:32.411Z,1796
2017-07-10T09:29:12.938Z,1740
2017-07-10T09:29:53.418Z,2076
2017-07-10T09:30:33.990Z,2412
2017-07-10T09:31:14.507Z,2668
2017-07-10T09:31:54.996Z,2576
2017-07-10T09:32:35.473Z,2636
2017-07-10T09:33:15.961Z,2376
2017-07-10T09:33:56.478Z,2148
2017-07-10T09:34:36.965Z,2192
2017-07-10T09:35:17.465Z,2320
2017-07-10T09:35:58.019Z,2388
2017-07-10T09:36:38.500Z,2496
2017-07-10T09:37:19.069Z,2576
2017-07-10T09:37:59.672Z,2572
2017-07-10T09:38:40.182Z,2556
2017-07-10T09:39:20.705Z,2544